createdAt,value
2023-02-07T00:01:21.730Z,100.00
2023-02-07T00:03:49.687Z,100.00
2023-02-07T00:06:19.067Z,100.00
2023-02-07T00:08:47.279Z,100.00
2023-02-07T00:11:17.144Z,100.00
2023-02-07T00:13:45.279Z,100.00
2023-02-07T00:16:13.426Z,100.00
2023-02-07T00:18:42.852Z,100.00
2023-02-07T00:21:11.742Z,100.00
2023-02-07T00:23:39.802Z,100.00
2023-02-07T00:26:08.556Z,100.00
2023-02-07T00:28:36.617Z,100.00
2023-02-07T00:31:05.826Z,100.00
2023-02-07T00:33:33.839Z,100.00
2023-02-07T00:36:04.301Z,100.00
2023-02-07T00:38:32.280Z,100.00
2023-02-07T00:41:01.519Z,100.00
2023-02-07T00:43:30.364Z,100.00
2023-02-07T00:45:59.613Z,100.00
2023-02-07T00:48:27.784Z,100.00
2023-02-07T00:50:55.789Z,100.00
2023-02-07T00:53:25.216Z,100.00
2023-02-07T00:55:53.203Z,100.00
2023-02-07T00:58:21.196Z,100.00
2023-02-07T01:00:49.168Z,100.00
2023-02-07T01:03:17.125Z,100.00
2023-02-07T01:05:45.063Z,100.00
2023-02-07T01:08:13.093Z,100.00
2023-02-07T01:10:42.657Z,100.00
2023-02-07T01:13:10.794Z,100.00
2023-02-07T01:15:39.660Z,100.00
2023-02-07T01:18:07.880Z,100.00
2023-02-07T01:20:35.868Z,100.00
2023-02-07T01:23:03.903Z,100.00
2023-02-07T01:25:31.926Z,100.00
2023-02-07T01:28:01.320Z,100.00
2023-02-07T01:30:29.373Z,100.00
2023-02-07T01:32:57.782Z,100.00
2023-02-07T01:35:25.774Z,100.00
2023-02-07T01:37:53.742Z,100.00
2023-02-07T01:40:21.775Z,100.00
2023-02-07T01:42:49.744Z,100.00
2023-02-07T01:45:25.251Z,100.00
2023-02-07T01:47:53.459Z,100.00
2023-02-07T01:50:21.600Z,100.00
2023-02-07T01:52:49.525Z,100.00
2023-02-07T01:55:19.595Z,100.00
2023-02-07T01:57:47.536Z,100.00
2023-02-07T02:00:15.963Z,100.00
2023-02-07T02:02:45.381Z,100.00
2023-02-07T02:05:13.340Z,100.00
2023-02-07T02:07:41.331Z,100.00
2023-02-07T02:10:15.066Z,100.00
2023-02-07T02:12:55.696Z,100.00
2023-02-07T02:15:37.093Z,100.00
2023-02-07T02:18:35.161Z,100.00
2023-02-07T02:21:28.366Z,100.00
2023-02-07T02:24:35.448Z,100.00
2023-02-07T02:27:07.358Z,100.00
2023-02-07T02:30:10.616Z,100.00
2023-02-07T02:33:15.439Z,100.00
2023-02-07T02:35:46.867Z,100.00
2023-02-07T02:38:17.278Z,100.00
2023-02-07T02:40:52.229Z,100.00
2023-02-07T02:43:22.786Z,100.00
2023-02-07T02:45:53.939Z,100.00
2023-02-07T02:48:23.228Z,100.00
2023-02-07T02:50:51.233Z,100.00
2023-02-07T02:53:19.159Z,100.00
2023-02-07T02:55:57.771Z,100.00
2023-02-07T02:58:27.881Z,100.00
2023-02-07T03:01:04.746Z,100.00
2023-02-07T03:04:01.596Z,100.00
2023-02-07T03:06:34.796Z,100.00
2023-02-07T03:09:07.647Z,100.00
2023-02-07T03:11:39.842Z,100.00
2023-02-07T03:14:10.038Z,100.00
2023-02-07T03:16:41.099Z,100.00
2023-02-07T03:19:11.252Z,100.00
2023-02-07T03:21:40.165Z,100.00
2023-02-07T03:24:14.634Z,100.00
2023-02-07T03:26:42.643Z,100.00
2023-02-07T03:29:10.578Z,100.00
2023-02-07T03:31:40.913Z,100.00
2023-02-07T03:34:11.883Z,100.00
2023-02-07T03:36:41.454Z,100.00
2023-02-07T03:39:09.427Z,100.00
2023-02-07T03:41:40.699Z,100.00
2023-02-07T03:44:08.706Z,100.00
2023-02-07T03:46:37.516Z,100.00
2023-02-07T03:49:05.616Z,100.00
2023-02-07T03:51:34.967Z,100.00
2023-02-07T03:54:02.982Z,100.00
2023-02-07T03:56:30.968Z,100.00
2023-02-07T03:58:58.969Z,100.00
2023-02-07T04:01:27.209Z,100.00
2023-02-07T04:03:55.259Z,100.00
2023-02-07T04:06:23.381Z,100.00
2023-02-07T04:08:52.762Z,100.00
2023-02-07T04:11:20.741Z,100.00
2023-02-07T04:13:48.673Z,100.00
2023-02-07T04:16:16.713Z,100.00
2023-02-07T04:18:44.841Z,100.00
2023-02-07T04:21:12.784Z,100.00
2023-02-07T04:23:40.771Z,100.00
2023-02-07T04:26:10.127Z,100.00
2023-02-07T04:28:38.137Z,100.00
2023-02-07T04:31:06.343Z,100.00
2023-02-07T04:33:34.259Z,100.00
2023-02-07T04:36:03.227Z,100.00
2023-02-07T04:38:31.355Z,100.00
2023-02-07T04:40:59.950Z,100.00
2023-02-07T04:43:29.277Z,100.00
2023-02-07T04:45:57.299Z,100.00
2023-02-07T04:48:25.303Z,100.00
2023-02-07T04:50:53.236Z,100.00
2023-02-07T04:53:21.166Z,100.00
2023-02-07T04:55:49.485Z,100.00
2023-02-07T04:58:17.395Z,100.00
2023-02-07T05:00:46.727Z,100.00
2023-02-07T05:03:14.737Z,100.00
2023-02-07T05:05:43.075Z,100.00
2023-02-07T05:08:11.142Z,100.00
2023-02-07T05:10:39.373Z,100.00
2023-02-07T05:13:07.598Z,100.00
2023-02-07T05:15:35.785Z,100.00
2023-02-07T05:18:06.071Z,100.00
2023-02-07T05:20:34.037Z,100.00
2023-02-07T05:23:01.968Z,100.00
2023-02-07T05:25:29.926Z,100.00
2023-02-07T05:27:57.920Z,100.00
2023-02-07T05:30:25.916Z,100.00
2023-02-07T05:33:05.087Z,100.00
2023-02-07T05:35:34.715Z,100.00
2023-02-07T05:38:02.760Z,100.00
2023-02-07T05:40:30.758Z,100.00
2023-02-07T05:42:58.838Z,100.00
2023-02-07T05:45:26.759Z,100.00
2023-02-07T05:47:54.717Z,100.00
2023-02-07T05:50:22.700Z,100.00
2023-02-07T05:52:52.017Z,100.00
2023-02-07T05:55:20.186Z,100.00
2023-02-07T05:57:48.189Z,100.00
2023-02-07T06:00:17.489Z,100.00
2023-02-07T06:02:45.636Z,100.00
2023-02-07T06:05:15.564Z,100.00
2023-02-07T06:07:44.086Z,100.00
2023-02-07T06:10:13.544Z,100.00
2023-02-07T06:12:41.501Z,100.00
2023-02-07T06:15:10.202Z,100.00
2023-02-07T06:17:38.262Z,100.00
2023-02-07T06:20:06.936Z,100.00
2023-02-07T06:22:34.922Z,100.00
2023-02-07T06:25:02.910Z,100.00
2023-02-07T06:27:32.286Z,100.00
2023-02-07T06:30:00.299Z,100.00
2023-02-07T06:32:28.270Z,100.00
2023-02-07T06:34:56.257Z,100.00
2023-02-07T06:37:24.221Z,100.00
2023-02-07T06:39:52.196Z,100.00
2023-02-07T06:42:20.161Z,100.00
2023-02-07T06:44:49.557Z,100.00
2023-02-07T06:47:19.710Z,100.00
2023-02-07T06:49:47.779Z,100.00
2023-02-07T06:52:15.754Z,100.00
2023-02-07T06:54:43.699Z,100.00
2023-02-07T06:57:11.777Z,100.00
2023-02-07T06:59:39.769Z,100.00
2023-02-07T07:02:09.132Z,100.00
2023-02-07T07:04:37.077Z,100.00
2023-02-07T07:07:05.080Z,100.00
2023-02-07T07:09:33.019Z,100.00
2023-02-07T07:12:00.974Z,100.00
2023-02-07T07:14:28.908Z,100.00
2023-02-07T07:16:57.016Z,100.00
2023-02-07T07:19:26.442Z,100.00
2023-02-07T07:21:55.299Z,100.00
2023-02-07T07:24:23.430Z,99.80
2023-02-07T07:26:52.512Z,96.24
2023-02-07T07:29:20.552Z,95.47
2023-02-07T07:31:48.590Z,94.11
2023-02-07T07:34:17.096Z,93.69
2023-02-07T07:36:46.454Z,92.74
2023-02-07T07:39:14.745Z,90.06
2023-02-07T07:41:42.675Z,89.91
2023-02-07T07:44:10.937Z,88.84
2023-02-07T07:46:38.953Z,87.72
2023-02-07T07:49:06.919Z,86.75
2023-02-07T07:51:34.865Z,85.47
2023-02-07T07:54:04.223Z,85.95
2023-02-07T07:56:32.811Z,82.00
2023-02-07T07:59:05.923Z,83.04
2023-02-07T08:01:40.027Z,80.89
2023-02-07T08:04:08.000Z,82.84
2023-02-07T08:06:35.982Z,81.86
2023-02-07T08:09:05.339Z,81.16
2023-02-07T08:11:33.269Z,74.55
2023-02-07T08:14:01.237Z,76.74
2023-02-07T08:16:29.233Z,79.47
2023-02-07T08:18:57.238Z,78.06
2023-02-07T08:21:26.759Z,76.80
2023-02-07T08:23:54.845Z,78.06
2023-02-07T08:26:24.193Z,78.72
2023-02-07T08:28:52.502Z,78.92
2023-02-07T08:31:20.542Z,79.44
2023-02-07T08:33:48.931Z,79.64
2023-02-07T08:36:16.947Z,79.25
2023-02-07T08:38:44.896Z,77.50
2023-02-07T08:41:12.864Z,76.08
2023-02-07T08:43:42.327Z,71.84
2023-02-07T08:46:10.437Z,69.70
2023-02-07T08:48:38.447Z,70.62
2023-02-07T08:51:07.494Z,68.99
2023-02-07T08:53:35.473Z,64.26
2023-02-07T08:56:03.414Z,66.34
2023-02-07T08:58:31.442Z,64.52
2023-02-07T09:01:00.792Z,67.52
2023-02-07T09:03:28.755Z,64.40
2023-02-07T09:05:59.300Z,65.08
2023-02-07T09:08:27.291Z,66.35
2023-02-07T09:10:55.231Z,68.60
2023-02-07T09:13:23.213Z,71.70
2023-02-07T09:15:54.904Z,68.21
2023-02-07T09:18:24.342Z,67.56
2023-02-07T09:20:52.359Z,63.90
2023-02-07T09:23:20.387Z,62.27
2023-02-07T09:25:48.693Z,61.19
2023-02-07T09:28:16.723Z,61.29
2023-02-07T09:30:44.757Z,58.14
2023-02-07T09:33:13.082Z,57.37
2023-02-07T09:35:43.734Z,56.03
2023-02-07T09:38:14.148Z,56.64
2023-02-07T09:40:42.107Z,57.60
2023-02-07T09:43:15.783Z,54.88
2023-02-07T09:45:45.452Z,53.36
2023-02-07T09:48:16.035Z,53.05
2023-02-07T09:50:48.794Z,56.32
2023-02-07T09:53:17.944Z,60.18
2023-02-07T09:55:47.702Z,59.26
2023-02-07T09:58:16.484Z,56.08
2023-02-07T10:00:44.531Z,55.50
2023-02-07T10:03:15.421Z,52.18
2023-02-07T10:05:46.518Z,50.82
2023-02-07T10:08:15.462Z,51.00
2023-02-07T10:10:46.316Z,48.20
2023-02-07T10:13:30.748Z,49.42
2023-02-07T10:16:09.000Z,46.12
2023-02-07T10:18:41.842Z,46.41
2023-02-07T10:21:15.355Z,47.47
2023-02-07T10:23:51.649Z,46.74
2023-02-07T10:26:24.367Z,43.80
2023-02-07T10:29:11.262Z,45.06
2023-02-07T10:31:44.200Z,46.34
2023-02-07T10:34:14.623Z,46.16
2023-02-07T10:36:46.053Z,45.18
2023-02-07T10:39:17.343Z,42.52
2023-02-07T10:41:45.356Z,45.47
2023-02-07T10:44:14.127Z,45.76
2023-02-07T10:46:42.703Z,44.80
2023-02-07T10:49:16.076Z,45.90
2023-02-07T10:51:45.941Z,44.33
2023-02-07T10:54:14.711Z,43.08
2023-02-07T10:56:43.603Z,41.22
2023-02-07T10:59:40.670Z,40.03
2023-02-07T11:02:56.288Z,40.21
2023-02-07T11:05:34.928Z,42.63
2023-02-07T11:08:05.238Z,43.94
2023-02-07T11:10:35.835Z,41.63
2023-02-07T11:13:03.906Z,41.08
2023-02-07T11:15:39.178Z,39.90
2023-02-07T11:18:07.387Z,39.77
2023-02-07T11:20:36.790Z,38.77
2023-02-07T11:23:08.537Z,39.86
2023-02-07T11:25:37.760Z,39.43
2023-02-07T11:28:06.214Z,39.35
2023-02-07T11:30:35.647Z,38.37
2023-02-07T11:33:05.214Z,38.02
2023-02-07T11:35:33.167Z,38.66
2023-02-07T11:38:03.691Z,38.05
2023-02-07T11:40:38.176Z,39.90
2023-02-07T11:43:12.202Z,38.09
2023-02-07T11:45:41.344Z,41.26
2023-02-07T11:48:09.508Z,41.01
2023-02-07T11:50:39.544Z,40.87
2023-02-07T11:53:07.724Z,40.48
2023-02-07T11:55:40.098Z,38.91
2023-02-07T11:58:09.905Z,38.79
2023-02-07T12:00:38.394Z,36.55
2023-02-07T12:03:09.103Z,35.40
2023-02-07T12:05:38.445Z,36.09
2023-02-07T12:08:07.908Z,37.64
2023-02-07T12:10:38.322Z,39.05
2023-02-07T12:13:07.483Z,40.63
2023-02-07T12:15:37.954Z,42.27
2023-02-07T12:18:08.514Z,44.34
2023-02-07T12:20:39.438Z,45.16
2023-02-07T12:23:39.161Z,46.02
2023-02-07T12:26:01.386Z,49.53
2023-02-07T12:28:32.876Z,50.65
2023-02-07T12:31:05.079Z,51.24
2023-02-07T12:33:38.248Z,52.33
2023-02-07T12:36:11.370Z,52.64
2023-02-07T12:38:41.563Z,54.49
2023-02-07T12:41:15.058Z,56.14
2023-02-07T12:43:45.909Z,56.02
2023-02-07T12:46:24.408Z,57.19
2023-02-07T12:49:12.080Z,59.87
2023-02-07T12:51:43.119Z,62.54
2023-02-07T12:54:22.068Z,65.71
2023-02-07T12:56:54.550Z,68.98
2023-02-07T12:59:26.726Z,70.85
2023-02-07T13:01:58.795Z,73.63
2023-02-07T13:05:03.159Z,76.02
2023-02-07T13:07:40.516Z,77.87
2023-02-07T13:10:16.813Z,80.57
2023-02-07T13:12:47.215Z,81.12
2023-02-07T13:15:19.605Z,81.62
2023-02-07T13:17:51.883Z,81.42
2023-02-07T13:20:28.901Z,83.91
2023-02-07T13:22:57.965Z,83.01
2023-02-07T13:25:26.836Z,82.59
2023-02-07T13:27:57.393Z,81.80
2023-02-07T13:30:25.376Z,83.35
2023-02-07T13:32:53.580Z,83.34
2023-02-07T13:35:22.922Z,83.05
2023-02-07T13:37:52.430Z,84.47
2023-02-07T13:40:28.999Z,85.86
2023-02-07T13:43:02.697Z,86.40
2023-02-07T13:45:34.950Z,86.94
2023-02-07T13:48:04.659Z,88.07
2023-02-07T13:50:42.956Z,89.37
2023-02-07T13:53:18.978Z,88.01
2023-02-07T13:55:48.264Z,88.45
2023-02-07T13:59:11.023Z,90.35
2023-02-07T14:01:39.683Z,90.80
2023-02-07T14:04:09.268Z,87.93
2023-02-07T14:06:37.642Z,87.19
2023-02-07T14:09:11.917Z,84.19
2023-02-07T14:11:41.465Z,81.60
2023-02-07T14:17:03.574Z,80.10
2023-02-07T14:19:50.828Z,80.19
2023-02-07T14:22:20.266Z,84.35
2023-02-07T14:25:24.416Z,86.89
2023-02-07T14:28:21.383Z,87.72
2023-02-07T14:31:00.769Z,87.64
2023-02-07T14:33:35.832Z,89.03
2023-02-07T14:36:07.066Z,86.82
2023-02-07T14:38:37.657Z,89.35
2023-02-07T14:41:11.191Z,93.03
2023-02-07T14:43:45.612Z,94.91
2023-02-07T14:46:16.426Z,97.56
2023-02-07T14:48:51.092Z,97.84
2023-02-07T14:51:20.636Z,99.06
2023-02-07T14:53:55.939Z,100.00
2023-02-07T14:56:31.416Z,100.00
2023-02-07T14:58:59.343Z,100.00
2023-02-07T15:01:27.399Z,100.00
2023-02-07T15:04:06.368Z,100.00
2023-02-07T15:06:38.895Z,100.00
2023-02-07T15:09:06.869Z,100.00
2023-02-07T15:11:34.822Z,100.00
2023-02-07T15:14:03.365Z,100.00
2023-02-07T15:16:31.808Z,100.00
2023-02-07T15:19:01.178Z,100.00
2023-02-07T15:21:33.209Z,100.00
2023-02-07T15:24:04.162Z,100.00
2023-02-07T15:26:32.112Z,100.00
2023-02-07T15:29:01.371Z,100.00
2023-02-07T15:31:29.528Z,100.00
2023-02-07T15:33:58.364Z,100.00
2023-02-07T15:36:30.623Z,100.00
2023-02-07T15:38:58.656Z,100.00
2023-02-07T15:41:27.186Z,100.00
2023-02-07T15:43:57.948Z,100.00
2023-02-07T15:46:25.910Z,100.00
2023-02-07T15:48:55.200Z,100.00
2023-02-07T15:51:24.235Z,100.00
2023-02-07T15:53:56.456Z,100.00
2023-02-07T15:56:24.431Z,100.00
2023-02-07T15:58:52.410Z,100.00
2023-02-07T16:01:24.696Z,100.00
2023-02-07T16:03:53.115Z,100.00
2023-02-07T16:06:22.669Z,100.00
2023-02-07T16:08:51.211Z,100.00
2023-02-07T16:11:34.506Z,100.00
2023-02-07T16:14:19.524Z,100.00
2023-02-07T16:16:51.525Z,100.00
2023-02-07T16:19:20.187Z,100.00
2023-02-07T16:21:51.451Z,100.00
2023-02-07T16:24:20.803Z,100.00
2023-02-07T16:26:50.883Z,100.00
2023-02-07T16:29:20.329Z,100.00
2023-02-07T16:31:48.336Z,100.00
2023-02-07T16:34:17.701Z,100.00
2023-02-07T16:36:45.708Z,100.00
2023-02-07T16:39:13.770Z,100.00
2023-02-07T16:41:42.488Z,100.00
2023-02-07T16:44:13.726Z,100.00
2023-02-07T16:46:41.695Z,100.00
2023-02-07T16:49:14.281Z,100.00
2023-02-07T16:51:42.265Z,100.00
2023-02-07T16:54:10.201Z,100.00
2023-02-07T16:56:38.140Z,100.00
2023-02-07T16:59:08.072Z,100.00
2023-02-07T17:01:37.414Z,100.00
2023-02-07T17:04:05.616Z,100.00
2023-02-07T17:06:33.521Z,100.00
2023-02-07T17:09:01.486Z,100.00
2023-02-07T17:11:29.388Z,100.00
2023-02-07T17:13:57.807Z,100.00
2023-02-07T17:16:27.048Z,100.00
2023-02-07T17:18:56.345Z,100.00
2023-02-07T17:21:24.272Z,100.00
2023-02-07T17:23:52.228Z,100.00
2023-02-07T17:26:23.494Z,100.00
2023-02-07T17:28:51.501Z,100.00
2023-02-07T17:31:19.589Z,100.00
2023-02-07T17:33:47.927Z,100.00
2023-02-07T17:36:17.257Z,100.00
2023-02-07T17:38:45.221Z,100.00
2023-02-07T17:41:13.369Z,100.00
2023-02-07T17:43:41.466Z,100.00
2023-02-07T17:46:13.077Z,100.00
2023-02-07T17:48:41.043Z,100.00
2023-02-07T17:51:09.012Z,100.00
2023-02-07T17:53:38.340Z,100.00
2023-02-07T17:56:07.380Z,100.00
2023-02-07T17:58:38.023Z,100.00
2023-02-07T18:01:06.692Z,100.00
2023-02-07T18:03:34.908Z,100.00
2023-02-07T18:06:02.860Z,100.00
2023-02-07T18:08:30.850Z,100.00
2023-02-07T18:11:04.205Z,100.00
2023-02-07T18:13:32.179Z,100.00
2023-02-07T18:16:00.221Z,100.00
2023-02-07T18:18:28.203Z,100.00
2023-02-07T18:20:56.608Z,100.00
2023-02-07T18:23:24.532Z,100.00
2023-02-07T18:25:52.506Z,100.00
2023-02-07T18:28:21.884Z,100.00
2023-02-07T18:30:49.963Z,100.00
2023-02-07T18:33:19.446Z,100.00
2023-02-07T18:35:51.373Z,100.00
2023-02-07T18:38:19.361Z,100.00
2023-02-07T18:40:47.361Z,100.00
2023-02-07T18:43:15.339Z,99.87
2023-02-07T18:45:44.796Z,99.58
2023-02-07T18:48:12.788Z,100.00
2023-02-07T18:50:43.507Z,100.00
2023-02-07T18:53:11.520Z,100.00
2023-02-07T18:55:39.516Z,100.00
2023-02-07T18:58:07.529Z,100.00
2023-02-07T19:00:35.497Z,100.00
2023-02-07T19:03:05.062Z,100.00
2023-02-07T19:05:33.039Z,100.00
2023-02-07T19:08:00.952Z,100.00
2023-02-07T19:10:28.977Z,100.00
2023-02-07T19:12:56.893Z,100.00
2023-02-07T19:15:24.874Z,100.00
2023-02-07T19:17:52.809Z,100.00
2023-02-07T19:20:22.245Z,100.00
2023-02-07T19:22:52.806Z,100.00
2023-02-07T19:25:21.315Z,100.00
2023-02-07T19:27:49.280Z,100.00
2023-02-07T19:30:17.344Z,100.00
2023-02-07T19:32:45.328Z,100.00
2023-02-07T19:35:13.292Z,100.00
2023-02-07T19:37:42.583Z,100.00
2023-02-07T19:40:11.141Z,100.00
2023-02-07T19:42:39.104Z,100.00
2023-02-07T19:45:07.516Z,100.00
2023-02-07T19:47:35.477Z,100.00
2023-02-07T19:50:03.396Z,100.00
2023-02-07T19:52:31.324Z,100.00
2023-02-07T19:55:00.650Z,100.00
2023-02-07T19:57:28.581Z,100.00
2023-02-07T19:59:56.578Z,100.00
2023-02-07T20:02:24.680Z,100.00
2023-02-07T20:04:54.660Z,100.00
2023-02-07T20:07:22.759Z,100.00
2023-02-07T20:09:50.783Z,100.00
2023-02-07T20:12:20.140Z,100.00
2023-02-07T20:14:48.066Z,100.00
2023-02-07T20:17:15.991Z,100.00
2023-02-07T20:19:44.015Z,100.00
2023-02-07T20:22:11.894Z,100.00
2023-02-07T20:24:39.922Z,100.00
2023-02-07T20:27:07.938Z,100.00
2023-02-07T20:29:37.272Z,100.00
2023-02-07T20:32:05.176Z,100.00
2023-02-07T20:34:33.160Z,100.00
2023-02-07T20:37:01.180Z,100.00
2023-02-07T20:39:31.497Z,100.00
2023-02-07T20:41:59.471Z,100.00
2023-02-07T20:44:27.876Z,100.00
2023-02-07T20:46:58.071Z,100.00
2023-02-07T20:49:28.469Z,100.00
2023-02-07T20:51:56.927Z,100.00
2023-02-07T20:54:26.007Z,100.00
2023-02-07T20:56:54.520Z,100.00
2023-02-07T20:59:24.313Z,100.00
2023-02-07T21:01:52.232Z,100.00
2023-02-07T21:04:21.518Z,100.00
2023-02-07T21:06:50.558Z,100.00
2023-02-07T21:09:18.703Z,100.00
2023-02-07T21:11:48.188Z,100.00
2023-02-07T21:14:17.518Z,100.00
2023-02-07T21:16:45.662Z,100.00
2023-02-07T21:19:14.770Z,100.00
2023-02-07T21:21:46.813Z,100.00
2023-02-07T21:24:14.844Z,100.00
2023-02-07T21:26:42.949Z,100.00
2023-02-07T21:29:12.162Z,100.00
2023-02-07T21:31:40.181Z,100.00
2023-02-07T21:34:09.732Z,100.00
2023-02-07T21:36:38.141Z,100.00
2023-02-07T21:39:09.341Z,100.00
2023-02-07T21:41:38.026Z,100.00
2023-02-07T21:44:06.338Z,100.00
2023-02-07T21:46:36.594Z,100.00
2023-02-07T21:49:05.568Z,100.00
2023-02-07T21:51:34.274Z,100.00
2023-02-07T21:54:02.578Z,100.00
2023-02-07T21:56:32.841Z,100.00
2023-02-07T21:59:01.475Z,100.00
2023-02-07T22:01:29.570Z,100.00
2023-02-07T22:03:59.890Z,100.00
2023-02-07T22:06:27.865Z,100.00
2023-02-07T22:08:56.987Z,100.00
2023-02-07T22:11:25.698Z,100.00
2023-02-07T22:13:54.976Z,100.00
2023-02-07T22:16:23.827Z,100.00
2023-02-07T22:18:52.553Z,100.00
2023-02-07T22:21:21.575Z,100.00
2023-02-07T22:23:49.493Z,100.00
2023-02-07T22:26:17.919Z,100.00
2023-02-07T22:28:45.848Z,100.00
2023-02-07T22:31:16.419Z,100.00
2023-02-07T22:33:44.460Z,100.00
2023-02-07T22:36:13.678Z,100.00
2023-02-07T22:38:41.589Z,100.00
2023-02-07T22:41:09.553Z,100.00
2023-02-07T22:43:37.596Z,100.00
2023-02-07T22:46:05.895Z,100.00
2023-02-07T22:48:35.406Z,100.00
2023-02-07T22:51:11.812Z,100.00
2023-02-07T22:53:39.792Z,100.00
2023-02-07T22:56:07.960Z,100.00
2023-02-07T22:58:35.913Z,100.00
2023-02-07T23:01:03.932Z,100.00
2023-02-07T23:03:31.867Z,100.00
2023-02-07T23:06:03.798Z,100.00
2023-02-07T23:08:31.722Z,100.00
2023-02-07T23:10:59.646Z,100.00
2023-02-07T23:13:27.575Z,100.00
2023-02-07T23:15:55.575Z,100.00
2023-02-07T23:18:24.823Z,100.00
2023-02-07T23:20:53.564Z,100.00
2023-02-07T23:23:23.303Z,100.00
2023-02-07T23:25:51.277Z,100.00
2023-02-07T23:28:19.274Z,100.00
2023-02-07T23:30:47.478Z,100.00
2023-02-07T23:33:15.498Z,100.00
2023-02-07T23:35:43.460Z,100.00
2023-02-07T23:38:11.435Z,100.00
2023-02-07T23:40:41.056Z,100.00
2023-02-07T23:43:09.188Z,100.00
2023-02-07T23:45:37.163Z,100.00
2023-02-07T23:48:07.279Z,100.00
2023-02-07T23:50:35.262Z,100.00
2023-02-07T23:53:03.207Z,100.00
2023-02-07T23:55:31.187Z,100.00
2023-02-07T23:58:00.536Z,100.00
